createdAt,value
2023-03-16T00:02:43.597Z,74.29
2023-03-16T00:07:43.320Z,74.60
2023-03-16T00:12:44.013Z,75.17
2023-03-16T00:17:48.604Z,74.86
2023-03-16T00:22:47.435Z,75.60
2023-03-16T00:27:46.297Z,73.47
2023-03-16T00:32:45.179Z,74.08
2023-03-16T00:37:44.376Z,75.83
2023-03-16T00:42:44.715Z,73.40
2023-03-16T00:47:43.512Z,72.77
2023-03-16T00:52:43.057Z,73.97
2023-03-16T00:57:42.126Z,74.21
2023-03-16T01:02:41.423Z,75.59
2023-03-16T01:07:41.445Z,73.95
2023-03-16T01:12:40.179Z,74.96
2023-03-16T01:17:39.221Z,74.10
2023-03-16T01:22:37.968Z,74.55
2023-03-16T01:27:36.971Z,74.17
2023-03-16T01:32:35.930Z,74.33
2023-03-16T01:37:35.207Z,75.60
2023-03-16T01:43:02.819Z,73.77
2023-03-16T01:48:05.370Z,73.44
2023-03-16T01:53:04.561Z,76.24
2023-03-16T01:58:04.095Z,74.41
2023-03-16T02:03:13.920Z,74.99
2023-03-16T02:08:23.113Z,75.53
2023-03-16T02:13:26.731Z,75.52
2023-03-16T02:18:26.698Z,75.46
2023-03-16T02:23:26.768Z,74.50
2023-03-16T02:28:30.110Z,75.01
2023-03-16T02:33:31.888Z,75.72
2023-03-16T02:38:31.692Z,74.60
2023-03-16T02:43:35.077Z,75.31
2023-03-16T02:48:46.833Z,75.45
2023-03-16T02:53:45.883Z,75.78
2023-03-16T02:58:46.888Z,74.34
2023-03-16T03:03:50.090Z,76.22
2023-03-16T03:08:49.068Z,75.46
2023-03-16T03:13:48.109Z,75.22
2023-03-16T03:18:52.883Z,75.74
2023-03-16T03:23:52.761Z,75.14
2023-03-16T03:28:52.811Z,75.33
2023-03-16T03:33:53.713Z,74.59
2023-03-16T03:38:54.899Z,73.47
2023-03-16T03:43:54.345Z,74.90
2023-03-16T03:48:53.241Z,74.63
2023-03-16T03:53:52.090Z,74.78
2023-03-16T03:59:09.799Z,76.26
2023-03-16T04:04:46.875Z,73.42
2023-03-16T04:09:46.796Z,74.25
2023-03-16T04:14:58.684Z,73.31
2023-03-16T04:20:02.386Z,73.01
2023-03-16T04:25:04.141Z,74.44
2023-03-16T04:30:13.949Z,73.80
2023-03-16T04:35:18.600Z,74.40
2023-03-16T04:40:22.138Z,74.40
2023-03-16T04:45:28.940Z,74.22
2023-03-16T04:50:29.603Z,76.48
2023-03-16T04:55:28.770Z,76.21
2023-03-16T05:00:29.352Z,76.21
2023-03-16T05:05:35.356Z,74.59
2023-03-16T05:10:35.289Z,76.72
2023-03-16T05:15:34.714Z,75.02
2023-03-16T05:21:03.226Z,75.84
2023-03-16T05:26:13.589Z,93.43
2023-03-16T05:31:13.394Z,64.14
2023-03-16T05:36:20.469Z,53.90
2023-03-16T05:41:23.887Z,51.88
2023-03-16T05:46:32.054Z,50.67
2023-03-16T05:51:33.142Z,51.07
2023-03-16T05:56:34.150Z,55.70
2023-03-16T06:01:36.222Z,49.88
2023-03-16T06:06:36.645Z,62.10
2023-03-16T06:11:51.605Z,66.28
2023-03-16T06:16:51.980Z,69.10
2023-03-16T06:21:51.848Z,69.01
2023-03-16T06:26:50.903Z,70.58
2023-03-16T06:31:52.882Z,69.97
2023-03-16T06:36:53.091Z,72.25
2023-03-16T06:41:52.330Z,70.59
2023-03-16T06:46:52.564Z,71.12
2023-03-16T06:51:54.230Z,71.07
2023-03-16T06:56:55.808Z,70.88
2023-03-16T07:01:55.221Z,71.66
2023-03-16T07:06:54.352Z,73.88
2023-03-16T07:11:53.830Z,70.83
2023-03-16T07:16:53.266Z,69.30
2023-03-16T07:21:54.415Z,71.08
2023-03-16T07:26:54.710Z,70.21
2023-03-16T07:31:59.448Z,68.31
2023-03-16T07:37:08.373Z,68.69
2023-03-16T07:42:08.388Z,69.60
2023-03-16T07:47:20.177Z,66.89
2023-03-16T07:52:19.364Z,66.94
2023-03-16T07:57:19.611Z,66.13
2023-03-16T08:02:21.046Z,64.39
2023-03-16T08:07:20.945Z,64.38
2023-03-16T08:12:25.289Z,63.69
2023-03-16T08:17:24.183Z,64.21
2023-03-16T08:22:24.395Z,63.11
2023-03-16T08:27:23.846Z,62.29
2023-03-16T08:32:28.964Z,60.52
2023-03-16T08:37:28.772Z,61.04
2023-03-16T08:42:30.044Z,59.91
2023-03-16T08:47:33.222Z,60.07
2023-03-16T08:52:33.867Z,58.88
2023-03-16T08:57:33.958Z,57.28
2023-03-16T09:02:33.348Z,58.39
2023-03-16T09:07:35.662Z,57.95
2023-03-16T09:12:38.330Z,57.99
2023-03-16T09:17:37.195Z,57.80
2023-03-16T09:22:37.953Z,57.30
2023-03-16T09:27:37.409Z,57.70
2023-03-16T09:32:37.568Z,55.50
2023-03-16T09:37:45.031Z,56.14
2023-03-16T09:43:00.524Z,55.83
2023-03-16T09:48:03.723Z,55.18
2023-03-16T09:53:24.914Z,52.06
2023-03-16T09:58:23.994Z,51.08
2023-03-16T10:03:57.637Z,50.84
2023-03-16T10:09:15.406Z,50.54
2023-03-16T10:14:33.010Z,49.67
2023-03-16T10:20:09.242Z,47.94
2023-03-16T10:25:21.861Z,48.69
2023-03-16T10:30:32.156Z,47.03
2023-03-16T10:35:49.175Z,45.13
2023-03-16T10:40:47.961Z,44.51
2023-03-16T10:45:47.295Z,46.59
2023-03-16T10:50:57.232Z,45.10
2023-03-16T10:56:02.265Z,40.49
2023-03-16T11:01:01.694Z,39.64
2023-03-16T11:06:07.147Z,40.17
2023-03-16T11:11:31.127Z,39.31
2023-03-16T11:16:55.066Z,40.38
2023-03-16T11:22:01.444Z,40.59
2023-03-16T11:27:04.689Z,39.46
2023-03-16T11:32:12.323Z,40.92
2023-03-16T11:37:13.251Z,39.87
2023-03-16T11:42:43.526Z,39.00
2023-03-16T11:47:54.297Z,39.65
2023-03-16T11:53:04.076Z,38.30
2023-03-16T11:58:02.822Z,37.93
2023-03-16T12:03:22.981Z,38.71
2023-03-16T12:08:29.227Z,37.58
2023-03-16T12:14:06.546Z,37.20
2023-03-16T12:19:13.136Z,37.27
2023-03-16T12:24:16.867Z,38.72
2023-03-16T12:29:42.821Z,36.14
2023-03-16T12:34:51.630Z,36.95
2023-03-16T12:40:12.233Z,37.37
2023-03-16T12:45:48.292Z,37.01
2023-03-16T12:50:57.606Z,37.92
2023-03-16T12:56:08.803Z,35.35
2023-03-16T13:01:10.009Z,34.67
2023-03-16T13:06:18.168Z,35.07
2023-03-16T13:11:17.713Z,36.17
2023-03-16T13:16:33.305Z,36.54
2023-03-16T13:21:41.404Z,37.48
2023-03-16T13:26:49.496Z,38.47
2023-03-16T13:31:49.091Z,39.04
2023-03-16T13:36:53.312Z,38.79
2023-03-16T13:42:14.410Z,37.93
2023-03-16T13:47:19.998Z,38.32
2023-03-16T13:52:30.075Z,39.80
2023-03-16T13:57:32.435Z,39.94
2023-03-16T14:02:31.731Z,39.69
2023-03-16T14:07:38.810Z,37.85
2023-03-16T14:12:38.165Z,40.28
2023-03-16T14:17:37.529Z,41.42
2023-03-16T14:22:38.570Z,39.62
2023-03-16T14:27:40.709Z,40.77
2023-03-16T14:32:40.053Z,40.76
2023-03-16T14:37:38.932Z,41.28
2023-03-16T14:42:40.286Z,40.86
2023-03-16T14:47:43.268Z,40.89
2023-03-16T14:52:42.385Z,42.70
2023-03-16T14:57:42.737Z,42.37
2023-03-16T15:02:44.743Z,41.56
2023-03-16T15:07:45.608Z,41.59
2023-03-16T15:12:50.720Z,40.27
2023-03-16T15:17:52.224Z,40.77
2023-03-16T15:22:53.008Z,42.40
2023-03-16T15:27:54.478Z,41.85
2023-03-16T15:32:53.276Z,41.95
2023-03-16T15:37:52.463Z,42.19
2023-03-16T15:42:51.731Z,41.90
2023-03-16T15:47:52.324Z,41.45
2023-03-16T15:52:59.442Z,41.47
2023-03-16T15:58:01.066Z,42.80
2023-03-16T16:03:01.430Z,42.76
2023-03-16T16:08:00.633Z,42.72
2023-03-16T16:13:00.231Z,43.14
2023-03-16T16:18:21.803Z,43.49
2023-03-16T16:23:19.289Z,44.66
2023-03-16T16:28:25.128Z,45.54
2023-03-16T16:33:44.312Z,46.71
2023-03-16T16:38:43.739Z,46.67
2023-03-16T16:43:47.804Z,46.35
2023-03-16T16:48:55.087Z,47.14
2023-03-16T16:53:56.979Z,47.12
2023-03-16T16:58:57.291Z,47.00
2023-03-16T17:03:56.617Z,47.65
2023-03-16T17:08:56.117Z,47.90
2023-03-16T17:13:57.163Z,48.42
2023-03-16T17:18:56.001Z,49.30
2023-03-16T17:23:55.232Z,49.67
2023-03-16T17:28:59.658Z,49.64
2023-03-16T17:33:58.559Z,50.02
2023-03-16T17:38:58.117Z,49.89
2023-03-16T17:44:02.727Z,50.01
2023-03-16T17:49:02.383Z,51.30
2023-03-16T17:54:01.480Z,51.59
2023-03-16T17:59:05.588Z,51.50
2023-03-16T18:04:15.980Z,51.93
2023-03-16T18:09:16.137Z,52.20
2023-03-16T18:14:27.090Z,52.63
2023-03-16T18:19:26.233Z,51.82
2023-03-16T18:24:26.861Z,52.12
2023-03-16T18:29:26.253Z,51.04
2023-03-16T18:34:32.538Z,52.31
2023-03-16T18:39:32.004Z,51.30
2023-03-16T18:44:31.922Z,52.02
2023-03-16T18:49:33.830Z,51.66
2023-03-16T18:54:38.302Z,51.85
2023-03-16T18:59:37.342Z,51.95
2023-03-16T19:04:36.221Z,52.49
2023-03-16T19:09:35.911Z,52.80
2023-03-16T19:14:35.359Z,53.36
2023-03-16T19:19:34.089Z,53.58
2023-03-16T19:24:51.510Z,52.97
2023-03-16T19:29:52.224Z,53.75
2023-03-16T19:34:51.280Z,54.41
2023-03-16T19:39:50.180Z,53.94
2023-03-16T19:44:50.698Z,54.51
2023-03-16T19:49:49.575Z,54.35
2023-03-16T19:54:48.555Z,54.81
2023-03-16T19:59:54.655Z,55.24
2023-03-16T20:04:54.814Z,54.67
2023-03-16T20:09:53.945Z,54.88
2023-03-16T20:14:53.793Z,55.04
2023-03-16T20:19:53.219Z,55.12
2023-03-16T20:24:54.384Z,55.18
2023-03-16T20:29:53.263Z,55.31
2023-03-16T20:34:53.676Z,55.24
2023-03-16T20:39:54.068Z,54.83
2023-03-16T20:44:53.086Z,54.70
2023-03-16T20:49:52.920Z,53.95
2023-03-16T20:54:52.578Z,54.68
2023-03-16T20:59:54.619Z,53.85
2023-03-16T21:04:58.010Z,54.26
2023-03-16T21:09:56.970Z,54.16
2023-03-16T21:14:56.212Z,54.94
2023-03-16T21:19:55.208Z,54.47
2023-03-16T21:24:55.358Z,70.63
2023-03-16T21:29:58.296Z,48.15
2023-03-16T21:34:57.725Z,51.35
2023-03-16T21:39:56.530Z,53.73
2023-03-16T21:44:55.330Z,53.91
2023-03-16T21:49:54.640Z,53.85
2023-03-16T21:54:54.297Z,55.12
2023-03-16T21:59:53.004Z,55.28
2023-03-16T22:04:52.361Z,53.94
2023-03-16T22:09:51.315Z,54.12
2023-03-16T22:14:50.119Z,54.85
2023-03-16T22:19:49.139Z,53.61
2023-03-16T22:24:48.172Z,53.92
2023-03-16T22:29:51.936Z,53.62
2023-03-16T22:34:53.688Z,52.51
2023-03-16T22:39:53.015Z,53.29
2023-03-16T22:44:51.823Z,52.76
2023-03-16T22:49:50.618Z,53.44
2023-03-16T22:54:49.505Z,51.57
2023-03-16T22:59:49.692Z,51.60
2023-03-16T23:04:48.440Z,52.23
2023-03-16T23:09:48.583Z,50.99
2023-03-16T23:14:47.767Z,50.98
2023-03-16T23:19:48.211Z,50.90
2023-03-16T23:24:47.342Z,50.86
2023-03-16T23:29:46.756Z,50.03
2023-03-16T23:34:46.059Z,49.45
2023-03-16T23:39:44.821Z,50.15
2023-03-16T23:44:44.019Z,49.92
2023-03-16T23:49:43.024Z,49.32
2023-03-16T23:54:41.979Z,49.67
2023-03-16T23:59:41.197Z,48.87
